createdAt,value
2018-09-15T00:01:27.335Z,18.20
2018-09-15T00:05:29.529Z,18.00
2018-09-15T00:09:31.723Z,17.80
2018-09-15T00:13:33.996Z,17.80
2018-09-15T00:17:36.238Z,17.60
2018-09-15T00:21:38.507Z,17.20
2018-09-15T00:25:41.388Z,17.10
2018-09-15T00:29:43.514Z,16.60
2018-09-15T00:33:45.696Z,17.20
2018-09-15T00:37:47.862Z,17.30
2018-09-15T00:41:50.392Z,17.40
2018-09-15T00:45:52.950Z,17.20
2018-09-15T00:49:55.091Z,17.20
2018-09-15T00:53:57.251Z,17.10
2018-09-15T00:57:59.440Z,16.90
2018-09-15T01:02:01.580Z,16.80
2018-09-15T01:06:03.735Z,16.20
2018-09-15T01:10:06.552Z,16.10
2018-09-15T01:14:08.760Z,16.50
2018-09-15T01:18:10.960Z,16.00
2018-09-15T01:22:13.128Z,15.80
2018-09-15T01:26:15.507Z,15.90
2018-09-15T01:30:17.738Z,16.40
2018-09-15T01:34:20.079Z,16.30
2018-09-15T01:38:22.228Z,16.80
2018-09-15T01:42:24.906Z,16.90
2018-09-15T01:46:27.051Z,16.80
2018-09-15T01:50:29.180Z,16.40
2018-09-15T01:54:31.330Z,16.50
2018-09-15T01:58:33.459Z,16.40
2018-09-15T02:02:35.598Z,16.10
2018-09-15T02:06:38.183Z,15.50
2018-09-15T02:10:40.362Z,16.00
2018-09-15T02:14:42.488Z,16.00
2018-09-15T02:18:44.634Z,16.20
2018-09-15T02:22:46.837Z,16.30
2018-09-15T02:26:48.954Z,16.00
2018-09-15T02:30:51.122Z,15.60
2018-09-15T02:34:53.338Z,16.00
2018-09-15T02:38:55.562Z,16.20
2018-09-15T02:42:57.714Z,16.10
2018-09-15T02:46:59.895Z,15.90
2018-09-15T02:51:02.068Z,15.80
2018-09-15T02:55:04.676Z,15.50
2018-09-15T02:59:06.838Z,15.50
2018-09-15T03:03:08.987Z,15.10
2018-09-15T03:07:11.851Z,15.20
2018-09-15T03:11:13.959Z,15.40
2018-09-15T03:15:16.087Z,15.40
2018-09-15T03:19:18.350Z,15.30
2018-09-15T03:23:20.572Z,15.20
2018-09-15T03:27:22.958Z,15.20
2018-09-15T03:31:25.690Z,15.20
2018-09-15T03:35:27.906Z,14.70
2018-09-15T03:39:30.095Z,14.80
2018-09-15T03:43:32.243Z,14.30
2018-09-15T03:47:34.359Z,14.80
2018-09-15T03:51:36.552Z,14.70
2018-09-15T03:55:38.700Z,14.20
2018-09-15T03:59:40.875Z,14.60
2018-09-15T04:03:43.038Z,14.40
2018-09-15T04:07:45.185Z,14.70
2018-09-15T04:11:47.414Z,14.50
2018-09-15T04:15:49.622Z,14.90
2018-09-15T04:19:51.758Z,15.00
2018-09-15T04:23:53.918Z,15.00
2018-09-15T04:27:56.054Z,14.70
2018-09-15T04:31:58.475Z,15.20
2018-09-15T04:36:00.690Z,15.50
2018-09-15T04:40:02.942Z,15.60
2018-09-15T04:44:05.286Z,15.90
2018-09-15T04:48:07.422Z,16.20
2018-09-15T04:52:09.578Z,16.30
2018-09-15T04:56:11.761Z,16.50
2018-09-15T05:00:13.904Z,16.50
2018-09-15T05:04:16.067Z,16.40
2018-09-15T05:08:18.539Z,16.30
2018-09-15T05:12:20.789Z,16.40
2018-09-15T05:16:22.877Z,16.50
2018-09-15T05:20:25.008Z,17.00
2018-09-15T05:24:27.171Z,17.00
2018-09-15T05:28:29.339Z,16.90
2018-09-15T05:32:31.501Z,17.00
2018-09-15T05:36:33.690Z,16.80
2018-09-15T05:40:36.703Z,16.80
2018-09-15T05:44:38.891Z,16.90
2018-09-15T05:48:41.035Z,17.00
2018-09-15T05:52:43.194Z,16.30
2018-09-15T05:56:45.435Z,16.30
2018-09-15T06:00:47.660Z,16.00
2018-09-15T06:04:49.848Z,16.50
2018-09-15T06:08:52.032Z,17.00
2018-09-15T06:12:54.257Z,17.30
2018-09-15T06:16:56.402Z,17.60
2018-09-15T06:20:58.612Z,18.10
2018-09-15T06:25:00.769Z,18.50
2018-09-15T06:29:03.202Z,18.90
2018-09-15T06:33:05.471Z,19.60
2018-09-15T06:37:07.650Z,20.00
2018-09-15T06:41:10.324Z,20.10
2018-09-15T06:45:12.572Z,19.60
2018-09-15T06:49:14.746Z,20.20
2018-09-15T06:53:16.928Z,19.50
2018-09-15T06:57:19.141Z,20.10
2018-09-15T07:01:21.333Z,19.80
2018-09-15T07:05:24.075Z,20.20
2018-09-15T07:09:26.254Z,20.00
2018-09-15T07:13:28.400Z,20.20
2018-09-15T07:17:30.743Z,19.90
2018-09-15T07:21:32.900Z,19.60
2018-09-15T07:25:35.074Z,20.20
2018-09-15T07:29:37.263Z,19.80
2018-09-15T07:33:39.449Z,18.70
2018-09-15T07:37:42.547Z,18.70
2018-09-15T07:41:44.775Z,19.20
2018-09-15T07:45:47.339Z,19.10
2018-09-15T07:49:50.222Z,20.60
2018-09-15T07:53:52.364Z,20.80
2018-09-15T07:57:54.765Z,20.30
2018-09-15T08:01:56.842Z,21.10
2018-09-15T08:05:59.048Z,21.70
2018-09-15T08:10:01.243Z,20.70
2018-09-15T08:14:03.485Z,20.60
2018-09-15T08:18:05.678Z,21.00
2018-09-15T08:22:07.890Z,21.60
2018-09-15T08:26:10.114Z,21.60
2018-09-15T08:30:12.378Z,22.00
2018-09-15T08:34:14.551Z,21.30
2018-09-15T08:38:16.752Z,21.00
2018-09-15T08:42:19.015Z,21.60
2018-09-15T08:46:21.151Z,21.60
2018-09-15T08:50:23.374Z,22.30
2018-09-15T08:54:25.712Z,22.10
2018-09-15T08:58:27.876Z,21.80
2018-09-15T09:02:30.094Z,21.50
2018-09-15T09:06:32.252Z,21.50
2018-09-15T09:10:34.736Z,23.30
2018-09-15T09:14:36.926Z,21.70
2018-09-15T09:18:39.183Z,21.80
2018-09-15T09:22:41.438Z,21.80
2018-09-15T09:26:43.664Z,21.90
2018-09-15T09:30:45.806Z,23.20
2018-09-15T09:34:48.017Z,22.10
2018-09-15T09:38:50.234Z,22.50
2018-09-15T09:42:52.760Z,22.40
2018-09-15T09:46:54.966Z,23.20
2018-09-15T09:50:57.147Z,23.10
2018-09-15T09:54:59.348Z,23.80
2018-09-15T09:59:01.644Z,22.00
2018-09-15T10:03:03.838Z,22.20
2018-09-15T10:07:06.108Z,21.20
2018-09-15T10:11:08.454Z,20.90
2018-09-15T10:15:10.648Z,21.40
2018-09-15T10:19:12.878Z,22.00
2018-09-15T10:23:15.047Z,23.20
2018-09-15T10:27:17.214Z,23.30
2018-09-15T10:31:19.554Z,21.60
2018-09-15T11:28:57.455Z,23.20
2018-09-15T11:32:59.587Z,23.60
2018-09-15T11:37:01.784Z,22.80
2018-09-15T11:41:04.178Z,23.90
2018-09-15T11:45:06.420Z,24.30
2018-09-15T11:49:09.229Z,24.10
2018-09-15T11:53:11.443Z,23.50
2018-09-15T11:57:14.139Z,23.30
2018-09-15T12:01:16.364Z,22.50
2018-09-15T12:05:19.606Z,22.90
2018-09-15T12:09:21.891Z,24.50
2018-09-15T12:13:24.052Z,26.40
2018-09-15T12:17:26.219Z,24.50
2018-09-15T12:21:28.410Z,22.60
2018-09-15T12:25:30.598Z,23.40
2018-09-15T12:29:32.807Z,23.00
2018-09-15T12:33:35.433Z,22.50
2018-09-15T12:37:37.606Z,24.10
2018-09-15T12:41:42.039Z,24.90
2018-09-15T12:45:44.360Z,25.00
2018-09-15T12:49:46.646Z,24.90
2018-09-15T12:53:48.896Z,25.90
2018-09-15T12:57:51.289Z,25.70
2018-09-15T13:01:53.621Z,25.70
2018-09-15T13:05:55.802Z,26.10
2018-09-15T13:09:58.037Z,26.00
2018-09-15T13:14:00.279Z,25.90
2018-09-15T13:18:02.534Z,26.60
2018-09-15T13:22:05.220Z,27.50
2018-09-15T13:26:07.469Z,28.10
2018-09-15T13:30:09.908Z,27.00
2018-09-15T13:34:12.093Z,27.60
2018-09-15T13:38:15.661Z,25.30
2018-09-15T13:42:17.940Z,25.60
2018-09-15T13:46:20.213Z,25.50
2018-09-15T13:50:22.397Z,25.40
2018-09-15T13:54:24.576Z,26.30
2018-09-15T13:58:26.763Z,25.60
2018-09-15T14:02:28.940Z,25.00
2018-09-15T14:06:31.110Z,24.70
2018-09-15T14:10:33.354Z,26.30
2018-09-15T14:14:35.559Z,26.30
2018-09-15T14:18:37.744Z,26.00
2018-09-15T14:22:39.947Z,26.80
2018-09-15T14:26:42.107Z,26.80
2018-09-15T14:30:44.556Z,26.50
2018-09-15T14:34:46.915Z,26.90
2018-09-15T14:38:49.248Z,26.10
2018-09-15T14:42:51.497Z,25.60
2018-09-15T14:46:53.857Z,25.60
2018-09-15T14:50:56.081Z,24.00
2018-09-15T14:54:58.270Z,24.90
2018-09-15T14:59:00.487Z,25.40
2018-09-15T15:03:04.933Z,24.60
2018-09-15T15:07:07.156Z,25.80
2018-09-15T15:11:09.311Z,23.00
2018-09-15T15:15:11.495Z,24.60
2018-09-15T15:19:13.884Z,24.50
2018-09-15T15:23:16.137Z,22.90
2018-09-15T15:27:18.319Z,23.10
2018-09-15T15:31:20.511Z,23.20
2018-09-15T15:35:22.841Z,22.70
2018-09-15T15:39:25.658Z,23.40
2018-09-15T15:43:27.918Z,23.20
2018-09-15T15:47:30.107Z,22.60
2018-09-15T15:51:32.694Z,23.80
2018-09-15T15:55:37.194Z,24.30
2018-09-15T15:59:39.413Z,24.70
2018-09-15T16:03:41.665Z,24.70
2018-09-15T16:07:43.918Z,24.40
2018-09-15T16:11:47.151Z,23.80
2018-09-15T16:15:50.272Z,23.10
2018-09-15T16:19:52.518Z,23.50
2018-09-15T16:23:54.736Z,23.50
2018-09-15T16:27:57.132Z,22.00
2018-09-15T16:31:59.333Z,20.20
2018-09-15T16:36:01.966Z,22.10
2018-09-15T16:40:04.247Z,20.50
2018-09-15T16:44:06.743Z,22.00
2018-09-15T16:48:08.948Z,21.30
2018-09-15T16:52:11.238Z,21.30
2018-09-15T16:56:13.453Z,20.80
2018-09-15T17:00:15.677Z,22.20
2018-09-15T17:04:17.955Z,21.90
2018-09-15T17:08:20.189Z,22.40
2018-09-15T17:12:22.386Z,22.70
2018-09-15T17:16:24.624Z,23.10
2018-09-15T17:20:26.834Z,22.50
2018-09-15T17:24:29.081Z,22.90
2018-09-15T17:28:31.375Z,22.20
2018-09-15T17:32:33.627Z,22.40
2018-09-15T17:36:35.870Z,21.40
2018-09-15T17:40:38.108Z,20.10
2018-09-15T17:44:40.446Z,20.40
2018-09-15T17:48:42.686Z,20.60
2018-09-15T17:52:44.973Z,20.80
2018-09-15T17:56:47.167Z,20.50
2018-09-15T18:00:49.788Z,20.80
2018-09-15T18:04:52.098Z,21.60
2018-09-15T18:08:54.301Z,21.90
2018-09-15T18:12:56.546Z,21.70
2018-09-15T18:16:58.802Z,21.40
2018-09-15T18:21:01.125Z,21.40
2018-09-15T18:25:03.503Z,21.20
2018-09-15T18:29:05.756Z,21.00
2018-09-15T18:33:07.971Z,20.50
2018-09-15T18:37:10.221Z,20.40
2018-09-15T18:41:12.523Z,20.60
2018-09-15T18:45:14.721Z,20.40
2018-09-15T18:49:17.189Z,20.30
2018-09-15T18:53:19.535Z,20.30
2018-09-15T18:57:21.783Z,20.30
2018-09-15T19:01:24.513Z,20.10
2018-09-15T19:05:29.579Z,20.10
2018-09-15T19:09:31.936Z,20.00
2018-09-15T19:13:34.091Z,19.90
2018-09-15T19:17:38.351Z,19.70
2018-09-15T19:21:40.551Z,19.60
2018-09-15T19:25:43.416Z,19.50
2018-09-15T19:29:45.831Z,19.50
2018-09-15T19:33:48.762Z,19.00
2018-09-15T19:37:51.916Z,19.10
2018-09-15T19:41:54.255Z,18.50
2018-09-15T19:45:56.547Z,17.90
2018-09-15T19:49:58.748Z,18.10
2018-09-15T19:54:01.184Z,18.40
2018-09-15T19:58:03.459Z,18.80
2018-09-15T20:02:05.905Z,18.80
2018-09-15T20:06:08.431Z,18.90
2018-09-15T20:10:10.589Z,18.50
2018-09-15T20:14:12.792Z,17.70
2018-09-15T20:18:15.359Z,17.90
2018-09-15T20:22:17.760Z,18.10
2018-09-15T20:26:20.440Z,17.70
2018-09-15T20:30:24.775Z,18.20
2018-09-15T20:34:27.630Z,18.40
2018-09-15T20:38:29.925Z,18.50
2018-09-15T20:42:32.222Z,18.40
2018-09-15T20:46:34.443Z,18.30
2018-09-15T20:50:37.305Z,18.10
2018-09-15T20:54:39.860Z,18.10
2018-09-15T20:58:42.202Z,17.90
2018-09-15T21:02:44.627Z,17.70
2018-09-15T21:06:46.887Z,18.00
2018-09-15T21:10:49.315Z,17.70
2018-09-15T21:14:51.622Z,18.20
2018-09-15T21:18:53.987Z,18.10
2018-09-15T21:22:56.191Z,17.90
2018-09-15T21:26:58.492Z,17.80
2018-09-15T21:31:00.656Z,17.70
2018-09-15T21:35:03.067Z,17.70
2018-09-15T21:39:08.166Z,17.60
2018-09-15T21:43:10.731Z,17.60
2018-09-15T21:47:13.280Z,17.50
2018-09-15T21:51:15.588Z,17.60
2018-09-15T21:55:17.810Z,17.60
2018-09-15T21:59:20.110Z,17.70
2018-09-15T22:03:22.819Z,17.50
2018-09-15T22:07:25.159Z,17.50
2018-09-15T22:11:29.795Z,17.40
2018-09-15T22:15:32.135Z,17.10
2018-09-15T22:19:34.471Z,16.80
2018-09-15T22:23:36.719Z,16.30
2018-09-15T22:27:48.928Z,15.90
2018-09-15T22:31:51.320Z,15.90
2018-09-15T22:35:53.594Z,17.00
2018-09-15T22:39:55.994Z,17.30
2018-09-15T22:43:58.227Z,17.20
2018-09-15T22:48:00.431Z,16.80
2018-09-15T22:52:02.647Z,16.90
2018-09-15T22:56:05.033Z,16.90
2018-09-15T23:00:09.339Z,16.90
2018-09-15T23:04:13.640Z,16.80
2018-09-15T23:08:15.871Z,16.80
2018-09-15T23:12:17.972Z,16.50
2018-09-15T23:16:20.508Z,16.40
2018-09-15T23:20:22.762Z,16.40
2018-09-15T23:24:24.951Z,16.40
2018-09-15T23:28:27.092Z,16.30
2018-09-15T23:32:29.307Z,16.20
2018-09-15T23:36:31.477Z,16.10
2018-09-15T23:40:33.646Z,15.10
2018-09-15T23:44:35.945Z,15.10
2018-09-15T23:48:38.123Z,15.50
2018-09-15T23:52:40.383Z,15.50
2018-09-15T23:56:42.583Z,15.90
